Pagrindinis puslapis
METAR-TAF:

METAR-TAF

Oro uostai :

Ahvazas, Iranas

platuma: 31-20N, ilguma: 048-40E, Aukštis: 20 m

Dabartinis oras

Ataskaita buvo paskelbta 39 minutes, ne 08:30 UTC
Vėjas 2 kt iš Pietvakarių
Temperatūra 41°C
Drėgmė 14%
Slėgis 1003 hPa
Matomumas 10 km arba daugiau
nėra debesų žemiau 1500 m ir nėra kamuolinių lietaus debesų

METAR: OIAW 210830Z 23002KT CAVOK 41/08 Q1003

Laikas: 12:39 (09:09 UTC)

Prognozė

Ataskaita buvo paskelbta 3 valandos ir 49 minutes, ne 05:20 UTC
Prognozė galioja nuo 21 metu 06 UTC su 22 metu 12 UTC
Vėjas 8 kt iš Šiaurės/Šiaurės Vakarų
Matomumas: 7000 m

TAF: OIAW 210520Z 2106/2212 34008KT 7000 NSC

Orai ataskaitas ir orų prognozės (METAR, TAF).

turimą stotys yra geltonos ir raudonos taškus žemėlapyje.

Perkelti pele per norėdami pamatyti stoties vardą.

Tada spustelėkite, norėdami matyti oro stebėjimo ir prognozės.

Norėdami pakeisti žemėlapį: spustelėkite ant žalios mygtukų su juodo kryžiaus žemyn,; žalią mygtuką su brūkšneliu, jei norite nutolinti; arba žalių rodyklių gretimoms žemėlapius.


METAR-TAF: